sensor_id;sensor_type;location;lat;lon;timestamp;P1;durP1;ratioP1;P2;durP2;ratioP2
12812;SDS011;6471;50.932;6.934;2023-06-14T00:03:14;6.63;;;5.40;;
12812;SDS011;6471;50.932;6.934;2023-06-14T00:05:38;7.73;;;5.10;;
12812;SDS011;6471;50.932;6.934;2023-06-14T00:08:16;6.17;;;5.40;;
12812;SDS011;6471;50.932;6.934;2023-06-14T00:23:50;10.20;;;5.30;;
12812;SDS011;6471;50.932;6.934;2023-06-14T00:47:43;7.70;;;5.70;;
12812;SDS011;6471;50.932;6.934;2023-06-14T00:50:14;7.60;;;5.70;;
12812;SDS011;6471;50.932;6.934;2023-06-14T00:52:45;7.53;;;6.00;;
12812;SDS011;6471;50.932;6.934;2023-06-14T00:55:50;7.07;;;5.40;;
12812;SDS011;6471;50.932;6.934;2023-06-14T00:58:58;8.00;;;5.40;;
12812;SDS011;6471;50.932;6.934;2023-06-14T01:01:35;6.57;;;5.17;;
12812;SDS011;6471;50.932;6.934;2023-06-14T01:04:02;8.67;;;5.40;;
12812;SDS011;6471;50.932;6.934;2023-06-14T01:11:45;6.10;;;5.50;;
12812;SDS011;6471;50.932;6.934;2023-06-14T01:14:13;7.37;;;5.50;;
12812;SDS011;6471;50.932;6.934;2023-06-14T01:16:39;5.90;;;5.07;;
12812;SDS011;6471;50.932;6.934;2023-06-14T01:19:07;5.80;;;4.77;;
12812;SDS011;6471;50.932;6.934;2023-06-14T01:21:37;7.33;;;5.77;;
12812;SDS011;6471;50.932;6.934;2023-06-14T01:24:06;6.50;;;5.10;;
12812;SDS011;6471;50.932;6.934;2023-06-14T01:26:33;6.40;;;5.57;;
12812;SDS011;6471;50.932;6.934;2023-06-14T01:29:00;5.63;;;5.03;;
12812;SDS011;6471;50.932;6.934;2023-06-14T01:31:26;6.60;;;5.33;;
12812;SDS011;6471;50.932;6.934;2023-06-14T01:33:54;6.07;;;5.20;;
12812;SDS011;6471;50.932;6.934;2023-06-14T01:36:21;5.97;;;5.20;;
12812;SDS011;6471;50.932;6.934;2023-06-14T01:38:48;8.23;;;6.03;;
12812;SDS011;6471;50.932;6.934;2023-06-14T01:41:15;7.20;;;5.83;;
12812;SDS011;6471;50.932;6.934;2023-06-14T01:43:41;6.23;;;5.30;;
12812;SDS011;6471;50.932;6.934;2023-06-14T01:46:08;7.60;;;5.47;;
12812;SDS011;6471;50.932;6.934;2023-06-14T01:48:34;5.77;;;4.90;;
12812;SDS011;6471;50.932;6.934;2023-06-14T01:51:00;5.63;;;5.03;;
12812;SDS011;6471;50.932;6.934;2023-06-14T01:53:26;6.37;;;5.40;;
12812;SDS011;6471;50.932;6.934;2023-06-14T01:55:52;7.13;;;5.17;;
12812;SDS011;6471;50.932;6.934;2023-06-14T01:58:19;7.30;;;5.03;;
12812;SDS011;6471;50.932;6.934;2023-06-14T02:00:46;5.90;;;5.00;;
12812;SDS011;6471;50.932;6.934;2023-06-14T02:03:12;7.60;;;5.33;;
12812;SDS011;6471;50.932;6.934;2023-06-14T02:05:38;7.43;;;5.60;;
12812;SDS011;6471;50.932;6.934;2023-06-14T02:08:05;7.47;;;5.20;;
12812;SDS011;6471;50.932;6.934;2023-06-14T02:10:31;7.00;;;5.30;;
12812;SDS011;6471;50.932;6.934;2023-06-14T02:12:57;7.27;;;5.20;;
12812;SDS011;6471;50.932;6.934;2023-06-14T02:15:23;8.50;;;4.90;;
12812;SDS011;6471;50.932;6.934;2023-06-14T02:17:49;6.97;;;5.00;;
12812;SDS011;6471;50.932;6.934;2023-06-14T02:20:15;6.60;;;5.23;;
12812;SDS011;6471;50.932;6.934;2023-06-14T02:22:41;6.03;;;5.40;;
12812;SDS011;6471;50.932;6.934;2023-06-14T02:25:08;7.10;;;5.27;;
12812;SDS011;6471;50.932;6.934;2023-06-14T02:27:34;7.00;;;5.20;;
12812;SDS011;6471;50.932;6.934;2023-06-14T02:30:00;5.93;;;5.10;;
12812;SDS011;6471;50.932;6.934;2023-06-14T02:32:26;7.10;;;5.80;;
12812;SDS011;6471;50.932;6.934;2023-06-14T02:34:53;6.50;;;5.50;;
12812;SDS011;6471;50.932;6.934;2023-06-14T02:37:19;7.73;;;5.30;;
12812;SDS011;6471;50.932;6.934;2023-06-14T02:39:45;6.43;;;5.10;;
12812;SDS011;6471;50.932;6.934;2023-06-14T02:42:11;5.50;;;5.00;;
12812;SDS011;6471;50.932;6.934;2023-06-14T02:44:37;6.33;;;5.37;;
12812;SDS011;6471;50.932;6.934;2023-06-14T02:47:04;6.80;;;5.27;;
12812;SDS011;6471;50.932;6.934;2023-06-14T02:49:30;6.03;;;4.80;;
12812;SDS011;6471;50.932;6.934;2023-06-14T02:51:56;6.40;;;4.97;;
12812;SDS011;6471;50.932;6.934;2023-06-14T02:54:22;6.07;;;5.33;;
12812;SDS011;6471;50.932;6.934;2023-06-14T02:56:48;7.70;;;5.57;;
12812;SDS011;6471;50.932;6.934;2023-06-14T02:59:15;8.00;;;5.57;;
12812;SDS011;6471;50.932;6.934;2023-06-14T03:01:42;7.90;;;5.43;;
12812;SDS011;6471;50.932;6.934;2023-06-14T03:04:08;6.07;;;5.47;;
12812;SDS011;6471;50.932;6.934;2023-06-14T03:06:34;6.73;;;5.53;;
12812;SDS011;6471;50.932;6.934;2023-06-14T03:09:01;6.27;;;5.33;;
12812;SDS011;6471;50.932;6.934;2023-06-14T03:11:30;9.77;;;5.37;;
12812;SDS011;6471;50.932;6.934;2023-06-14T03:13:56;5.90;;;5.30;;
12812;SDS011;6471;50.932;6.934;2023-06-14T03:16:22;7.50;;;5.37;;
12812;SDS011;6471;50.932;6.934;2023-06-14T03:18:52;7.67;;;5.43;;
12812;SDS011;6471;50.932;6.934;2023-06-14T03:21:18;8.30;;;5.60;;
12812;SDS011;6471;50.932;6.934;2023-06-14T03:23:45;6.73;;;5.20;;
12812;SDS011;6471;50.932;6.934;2023-06-14T03:26:11;7.60;;;5.30;;
12812;SDS011;6471;50.932;6.934;2023-06-14T03:28:43;9.37;;;5.77;;
12812;SDS011;6471;50.932;6.934;2023-06-14T03:31:10;8.90;;;5.50;;
12812;SDS011;6471;50.932;6.934;2023-06-14T03:33:36;7.90;;;5.43;;
12812;SDS011;6471;50.932;6.934;2023-06-14T03:36:02;6.73;;;5.07;;
12812;SDS011;6471;50.932;6.934;2023-06-14T03:38:28;6.43;;;5.13;;
12812;SDS011;6471;50.932;6.934;2023-06-14T03:40:55;5.57;;;4.97;;
12812;SDS011;6471;50.932;6.934;2023-06-14T03:43:21;7.30;;;4.90;;
12812;SDS011;6471;50.932;6.934;2023-06-14T03:45:47;5.23;;;4.70;;
12812;SDS011;6471;50.932;6.934;2023-06-14T03:48:13;5.63;;;5.03;;
12812;SDS011;6471;50.932;6.934;2023-06-14T03:50:39;6.60;;;4.80;;
12812;SDS011;6471;50.932;6.934;2023-06-14T03:53:05;5.80;;;5.03;;
12812;SDS011;6471;50.932;6.934;2023-06-14T03:55:31;5.93;;;5.33;;
12812;SDS011;6471;50.932;6.934;2023-06-14T03:57:58;5.97;;;4.77;;
12812;SDS011;6471;50.932;6.934;2023-06-14T04:00:24;8.70;;;4.93;;
12812;SDS011;6471;50.932;6.934;2023-06-14T04:02:51;5.73;;;5.10;;
12812;SDS011;6471;50.932;6.934;2023-06-14T04:05:17;7.20;;;5.07;;
12812;SDS011;6471;50.932;6.934;2023-06-14T04:07:44;7.43;;;4.97;;
12812;SDS011;6471;50.932;6.934;2023-06-14T04:10:11;6.27;;;4.97;;
12812;SDS011;6471;50.932;6.934;2023-06-14T04:12:38;5.10;;;4.50;;
12812;SDS011;6471;50.932;6.934;2023-06-14T04:15:04;8.00;;;5.37;;
12812;SDS011;6471;50.932;6.934;2023-06-14T04:17:33;5.30;;;4.80;;
12812;SDS011;6471;50.932;6.934;2023-06-14T04:20:00;5.40;;;4.63;;
12812;SDS011;6471;50.932;6.934;2023-06-14T04:22:26;6.83;;;5.37;;
12812;SDS011;6471;50.932;6.934;2023-06-14T04:24:53;8.50;;;5.13;;
12812;SDS011;6471;50.932;6.934;2023-06-14T04:27:21;5.40;;;4.77;;
12812;SDS011;6471;50.932;6.934;2023-06-14T04:29:50;5.80;;;4.70;;
12812;SDS011;6471;50.932;6.934;2023-06-14T04:32:21;7.03;;;5.03;;
12812;SDS011;6471;50.932;6.934;2023-06-14T04:34:50;5.77;;;4.90;;
12812;SDS011;6471;50.932;6.934;2023-06-14T04:37:18;7.83;;;4.73;;
12812;SDS011;6471;50.932;6.934;2023-06-14T04:39:46;8.07;;;4.60;;
12812;SDS011;6471;50.932;6.934;2023-06-14T04:42:12;7.43;;;4.83;;
12812;SDS011;6471;50.932;6.934;2023-06-14T04:44:39;8.13;;;5.13;;
12812;SDS011;6471;50.932;6.934;2023-06-14T04:47:05;8.80;;;5.07;;
12812;SDS011;6471;50.932;6.934;2023-06-14T04:49:32;9.07;;;4.93;;
12812;SDS011;6471;50.932;6.934;2023-06-14T04:51:59;5.10;;;4.30;;
12812;SDS011;6471;50.932;6.934;2023-06-14T04:54:26;7.83;;;4.93;;
12812;SDS011;6471;50.932;6.934;2023-06-14T04:56:53;7.50;;;4.40;;
12812;SDS011;6471;50.932;6.934;2023-06-14T04:59:20;6.23;;;4.83;;
12812;SDS011;6471;50.932;6.934;2023-06-14T05:01:48;7.10;;;4.80;;
12812;SDS011;6471;50.932;6.934;2023-06-14T05:04:17;8.30;;;4.83;;
12812;SDS011;6471;50.932;6.934;2023-06-14T05:06:44;5.10;;;4.40;;
12812;SDS011;6471;50.932;6.934;2023-06-14T05:09:11;6.40;;;4.63;;
12812;SDS011;6471;50.932;6.934;2023-06-14T05:11:37;5.77;;;4.50;;
12812;SDS011;6471;50.932;6.934;2023-06-14T05:14:13;7.07;;;4.30;;
12812;SDS011;6471;50.932;6.934;2023-06-14T05:16:40;7.23;;;4.83;;
12812;SDS011;6471;50.932;6.934;2023-06-14T05:19:06;6.00;;;4.03;;
12812;SDS011;6471;50.932;6.934;2023-06-14T05:21:32;6.13;;;4.23;;
12812;SDS011;6471;50.932;6.934;2023-06-14T05:23:59;7.60;;;4.63;;
12812;SDS011;6471;50.932;6.934;2023-06-14T05:26:29;5.60;;;4.23;;
12812;SDS011;6471;50.932;6.934;2023-06-14T05:28:58;7.47;;;4.50;;
12812;SDS011;6471;50.932;6.934;2023-06-14T05:31:26;6.27;;;4.13;;
12812;SDS011;6471;50.932;6.934;2023-06-14T05:33:54;6.83;;;4.23;;
12812;SDS011;6471;50.932;6.934;2023-06-14T05:36:26;6.57;;;4.57;;
12812;SDS011;6471;50.932;6.934;2023-06-14T05:38:53;6.00;;;4.20;;
12812;SDS011;6471;50.932;6.934;2023-06-14T05:41:28;4.53;;;3.70;;
12812;SDS011;6471;50.932;6.934;2023-06-14T05:43:55;7.37;;;4.73;;
12812;SDS011;6471;50.932;6.934;2023-06-14T05:46:21;5.87;;;4.00;;
12812;SDS011;6471;50.932;6.934;2023-06-14T05:48:50;4.37;;;3.73;;
12812;SDS011;6471;50.932;6.934;2023-06-14T05:51:16;7.03;;;4.00;;
12812;SDS011;6471;50.932;6.934;2023-06-14T05:53:45;6.20;;;3.80;;
12812;SDS011;6471;50.932;6.934;2023-06-14T05:56:12;7.43;;;4.23;;
12812;SDS011;6471;50.932;6.934;2023-06-14T05:58:38;4.83;;;3.93;;
12812;SDS011;6471;50.932;6.934;2023-06-14T06:01:04;6.23;;;3.57;;
12812;SDS011;6471;50.932;6.934;2023-06-14T06:03:30;5.33;;;3.63;;
12812;SDS011;6471;50.932;6.934;2023-06-14T06:05:56;7.37;;;4.10;;
12812;SDS011;6471;50.932;6.934;2023-06-14T06:08:22;3.87;;;3.40;;
12812;SDS011;6471;50.932;6.934;2023-06-14T06:10:48;4.30;;;3.67;;
12812;SDS011;6471;50.932;6.934;2023-06-14T06:13:15;5.80;;;3.70;;
12812;SDS011;6471;50.932;6.934;2023-06-14T06:15:41;7.87;;;3.90;;
12812;SDS011;6471;50.932;6.934;2023-06-14T06:18:07;4.63;;;3.73;;
12812;SDS011;6471;50.932;6.934;2023-06-14T06:20:33;5.53;;;3.57;;
12812;SDS011;6471;50.932;6.934;2023-06-14T06:22:59;8.53;;;3.53;;
12812;SDS011;6471;50.932;6.934;2023-06-14T06:25:26;6.73;;;3.70;;
12812;SDS011;6471;50.932;6.934;2023-06-14T06:27:53;5.43;;;3.53;;
12812;SDS011;6471;50.932;6.934;2023-06-14T06:30:19;4.87;;;3.80;;
12812;SDS011;6471;50.932;6.934;2023-06-14T06:32:46;4.07;;;3.37;;
12812;SDS011;6471;50.932;6.934;2023-06-14T06:35:12;3.63;;;3.30;;
12812;SDS011;6471;50.932;6.934;2023-06-14T06:37:41;6.43;;;3.73;;
12812;SDS011;6471;50.932;6.934;2023-06-14T06:40:08;4.70;;;3.23;;
12812;SDS011;6471;50.932;6.934;2023-06-14T06:42:34;6.60;;;3.60;;
12812;SDS011;6471;50.932;6.934;2023-06-14T06:45:01;4.70;;;3.70;;
12812;SDS011;6471;50.932;6.934;2023-06-14T06:47:27;9.07;;;3.90;;
12812;SDS011;6471;50.932;6.934;2023-06-14T06:49:53;5.87;;;3.87;;
12812;SDS011;6471;50.932;6.934;2023-06-14T06:52:19;5.40;;;3.77;;
12812;SDS011;6471;50.932;6.934;2023-06-14T06:54:48;6.20;;;3.40;;
12812;SDS011;6471;50.932;6.934;2023-06-14T06:57:19;5.17;;;3.80;;
12812;SDS011;6471;50.932;6.934;2023-06-14T06:59:46;4.93;;;3.77;;
12812;SDS011;6471;50.932;6.934;2023-06-14T07:02:12;4.00;;;3.33;;
12812;SDS011;6471;50.932;6.934;2023-06-14T07:04:38;4.90;;;3.40;;
12812;SDS011;6471;50.932;6.934;2023-06-14T07:07:04;6.60;;;4.07;;
12812;SDS011;6471;50.932;6.934;2023-06-14T07:09:30;5.10;;;3.60;;
12812;SDS011;6471;50.932;6.934;2023-06-14T07:11:56;6.30;;;4.03;;
12812;SDS011;6471;50.932;6.934;2023-06-14T07:14:22;4.50;;;3.53;;
12812;SDS011;6471;50.932;6.934;2023-06-14T07:16:49;7.17;;;4.23;;
12812;SDS011;6471;50.932;6.934;2023-06-14T07:19:15;4.30;;;3.10;;
12812;SDS011;6471;50.932;6.934;2023-06-14T07:21:42;8.07;;;3.60;;
12812;SDS011;6471;50.932;6.934;2023-06-14T07:24:08;6.37;;;3.90;;
12812;SDS011;6471;50.932;6.934;2023-06-14T07:26:34;4.30;;;3.17;;
12812;SDS011;6471;50.932;6.934;2023-06-14T07:29:00;5.97;;;3.53;;
12812;SDS011;6471;50.932;6.934;2023-06-14T07:31:26;5.60;;;3.10;;
12812;SDS011;6471;50.932;6.934;2023-06-14T07:33:52;6.20;;;3.57;;
12812;SDS011;6471;50.932;6.934;2023-06-14T07:36:18;4.43;;;3.17;;
12812;SDS011;6471;50.932;6.934;2023-06-14T07:38:45;5.60;;;3.20;;
12812;SDS011;6471;50.932;6.934;2023-06-14T07:41:11;5.17;;;3.00;;
12812;SDS011;6471;50.932;6.934;2023-06-14T07:43:37;5.90;;;3.10;;
12812;SDS011;6471;50.932;6.934;2023-06-14T07:46:04;4.50;;;2.93;;
12812;SDS011;6471;50.932;6.934;2023-06-14T07:48:30;8.77;;;3.20;;
12812;SDS011;6471;50.932;6.934;2023-06-14T07:50:56;4.93;;;2.80;;
12812;SDS011;6471;50.932;6.934;2023-06-14T07:53:22;6.10;;;2.90;;
12812;SDS011;6471;50.932;6.934;2023-06-14T07:55:48;5.87;;;3.07;;
12812;SDS011;6471;50.932;6.934;2023-06-14T07:58:15;3.93;;;2.67;;
12812;SDS011;6471;50.932;6.934;2023-06-14T08:00:41;3.70;;;2.37;;
12812;SDS011;6471;50.932;6.934;2023-06-14T08:03:07;3.70;;;2.67;;
12812;SDS011;6471;50.932;6.934;2023-06-14T08:05:33;3.50;;;2.40;;
12812;SDS011;6471;50.932;6.934;2023-06-14T08:08:00;3.17;;;2.50;;
12812;SDS011;6471;50.932;6.934;2023-06-14T08:10:26;4.03;;;2.30;;
12812;SDS011;6471;50.932;6.934;2023-06-14T08:12:52;2.60;;;2.40;;
12812;SDS011;6471;50.932;6.934;2023-06-14T08:15:18;3.72;;;2.22;;
12812;SDS011;6471;50.932;6.934;2023-06-14T08:17:44;5.22;;;2.30;;
12812;SDS011;6471;50.932;6.934;2023-06-14T08:20:10;3.53;;;1.90;;
12812;SDS011;6471;50.932;6.934;2023-06-14T08:22:37;2.20;;;1.90;;
12812;SDS011;6471;50.932;6.934;2023-06-14T08:25:04;4.18;;;1.75;;
12812;SDS011;6471;50.932;6.934;2023-06-14T08:27:31;2.10;;;1.90;;
12812;SDS011;6471;50.932;6.934;2023-06-14T08:29:57;4.60;;;1.77;;
12812;SDS011;6471;50.932;6.934;2023-06-14T08:32:23;2.40;;;1.80;;
12812;SDS011;6471;50.932;6.934;2023-06-14T08:34:50;4.55;;;1.70;;
12812;SDS011;6471;50.932;6.934;2023-06-14T08:37:16;2.95;;;1.70;;
12812;SDS011;6471;50.932;6.934;2023-06-14T08:39:42;1.98;;;1.67;;
12812;SDS011;6471;50.932;6.934;2023-06-14T08:42:09;2.30;;;1.70;;
12812;SDS011;6471;50.932;6.934;2023-06-14T08:44:35;3.47;;;1.90;;
12812;SDS011;6471;50.932;6.934;2023-06-14T08:47:01;2.72;;;1.75;;
12812;SDS011;6471;50.932;6.934;2023-06-14T08:49:31;2.35;;;1.70;;
12812;SDS011;6471;50.932;6.934;2023-06-14T08:51:57;1.90;;;1.70;;
12812;SDS011;6471;50.932;6.934;2023-06-14T08:54:28;2.35;;;1.80;;
12812;SDS011;6471;50.932;6.934;2023-06-14T08:56:59;2.63;;;1.67;;
12812;SDS011;6471;50.932;6.934;2023-06-14T08:59:25;2.95;;;1.77;;
12812;SDS011;6471;50.932;6.934;2023-06-14T09:01:52;2.17;;;1.83;;
12812;SDS011;6471;50.932;6.934;2023-06-14T09:04:19;6.78;;;2.08;;
12812;SDS011;6471;50.932;6.934;2023-06-14T09:06:46;2.85;;;1.80;;
12812;SDS011;6471;50.932;6.934;2023-06-14T09:09:17;4.55;;;2.00;;
12812;SDS011;6471;50.932;6.934;2023-06-14T09:11:43;3.53;;;1.90;;
12812;SDS011;6471;50.932;6.934;2023-06-14T09:14:10;2.60;;;2.17;;
12812;SDS011;6471;50.932;6.934;2023-06-14T09:16:36;2.33;;;2.05;;
12812;SDS011;6471;50.932;6.934;2023-06-14T09:19:02;2.42;;;1.90;;
12812;SDS011;6471;50.932;6.934;2023-06-14T09:21:28;3.80;;;1.98;;
12812;SDS011;6471;50.932;6.934;2023-06-14T09:24:01;3.15;;;2.10;;
12812;SDS011;6471;50.932;6.934;2023-06-14T09:26:27;2.60;;;1.95;;
12812;SDS011;6471;50.932;6.934;2023-06-14T09:28:54;3.47;;;2.13;;
12812;SDS011;6471;50.932;6.934;2023-06-14T09:31:20;2.05;;;1.83;;
12812;SDS011;6471;50.932;6.934;2023-06-14T09:33:50;4.35;;;2.00;;
12812;SDS011;6471;50.932;6.934;2023-06-14T09:38:51;5.05;;;2.10;;
12812;SDS011;6471;50.932;6.934;2023-06-14T09:41:20;3.35;;;2.30;;
12812;SDS011;6471;50.932;6.934;2023-06-14T09:43:46;3.15;;;2.13;;
12812;SDS011;6471;50.932;6.934;2023-06-14T09:46:13;2.75;;;2.20;;
12812;SDS011;6471;50.932;6.934;2023-06-14T09:48:39;6.05;;;2.30;;
12812;SDS011;6471;50.932;6.934;2023-06-14T09:51:08;4.28;;;2.00;;
12812;SDS011;6471;50.932;6.934;2023-06-14T09:53:35;3.45;;;2.20;;
12812;SDS011;6471;50.932;6.934;2023-06-14T09:56:02;1.83;;;1.73;;
12812;SDS011;6471;50.932;6.934;2023-06-14T09:58:30;2.75;;;2.15;;
12812;SDS011;6471;50.932;6.934;2023-06-14T10:00:57;2.67;;;1.98;;
12812;SDS011;6471;50.932;6.934;2023-06-14T10:03:25;4.32;;;2.17;;
12812;SDS011;6471;50.932;6.934;2023-06-14T10:05:53;3.00;;;1.97;;
12812;SDS011;6471;50.932;6.934;2023-06-14T10:08:23;4.50;;;2.37;;
12812;SDS011;6471;50.932;6.934;2023-06-14T10:10:51;5.20;;;2.57;;
12812;SDS011;6471;50.932;6.934;2023-06-14T10:13:17;3.05;;;2.20;;
12812;SDS011;6471;50.932;6.934;2023-06-14T10:18:48;2.40;;;2.20;;
12812;SDS011;6471;50.932;6.934;2023-06-14T10:24:01;2.58;;;2.17;;
12812;SDS011;6471;50.932;6.934;2023-06-14T10:26:29;5.73;;;2.77;;
12812;SDS011;6471;50.932;6.934;2023-06-14T10:29:28;4.82;;;2.67;;
12812;SDS011;6471;50.932;6.934;2023-06-14T10:31:48;3.60;;;3.00;;
12812;SDS011;6471;50.932;6.934;2023-06-14T10:34:25;3.38;;;2.20;;
12812;SDS011;6471;50.932;6.934;2023-06-14T10:37:04;3.55;;;2.60;;
12812;SDS011;6471;50.932;6.934;2023-06-14T10:39:31;3.20;;;2.30;;
12812;SDS011;6471;50.932;6.934;2023-06-14T10:41:57;3.40;;;2.63;;
12812;SDS011;6471;50.932;6.934;2023-06-14T10:46:53;4.32;;;2.38;;
12812;SDS011;6471;50.932;6.934;2023-06-14T10:49:19;3.75;;;2.00;;
12812;SDS011;6471;50.932;6.934;2023-06-14T10:51:49;3.63;;;2.10;;
12812;SDS011;6471;50.932;6.934;2023-06-14T10:54:16;6.05;;;2.50;;
12812;SDS011;6471;50.932;6.934;2023-06-14T10:56:49;3.85;;;2.15;;
12812;SDS011;6471;50.932;6.934;2023-06-14T10:59:16;3.58;;;1.80;;
12812;SDS011;6471;50.932;6.934;2023-06-14T11:04:09;3.70;;;2.60;;
12812;SDS011;6471;50.932;6.934;2023-06-14T11:06:53;2.20;;;1.90;;
12812;SDS011;6471;50.932;6.934;2023-06-14T11:12:10;4.15;;;1.90;;
12812;SDS011;6471;50.932;6.934;2023-06-14T11:14:37;4.57;;;2.10;;
12812;SDS011;6471;50.932;6.934;2023-06-14T11:17:04;3.33;;;2.22;;
12812;SDS011;6471;50.932;6.934;2023-06-14T11:19:30;4.22;;;2.10;;
12812;SDS011;6471;50.932;6.934;2023-06-14T11:21:56;2.13;;;1.92;;
12812;SDS011;6471;50.932;6.934;2023-06-14T11:24:23;3.42;;;2.10;;
12812;SDS011;6471;50.932;6.934;2023-06-14T11:26:49;2.83;;;2.20;;
12812;SDS011;6471;50.932;6.934;2023-06-14T11:29:15;4.47;;;2.42;;
12812;SDS011;6471;50.932;6.934;2023-06-14T11:31:43;4.05;;;2.42;;
12812;SDS011;6471;50.932;6.934;2023-06-14T11:34:12;3.80;;;2.40;;
12812;SDS011;6471;50.932;6.934;2023-06-14T11:36:38;3.80;;;2.30;;
12812;SDS011;6471;50.932;6.934;2023-06-14T11:39:05;5.78;;;2.47;;
12812;SDS011;6471;50.932;6.934;2023-06-14T11:41:36;5.10;;;2.42;;
12812;SDS011;6471;50.932;6.934;2023-06-14T11:44:02;2.60;;;2.13;;
12812;SDS011;6471;50.932;6.934;2023-06-14T11:46:28;5.13;;;2.35;;
12812;SDS011;6471;50.932;6.934;2023-06-14T11:48:54;4.35;;;2.30;;
12812;SDS011;6471;50.932;6.934;2023-06-14T11:51:20;3.28;;;2.15;;
12812;SDS011;6471;50.932;6.934;2023-06-14T11:53:46;4.28;;;2.28;;
12812;SDS011;6471;50.932;6.934;2023-06-14T11:56:13;4.07;;;2.08;;
12812;SDS011;6471;50.932;6.934;2023-06-14T11:58:43;2.60;;;2.10;;
12812;SDS011;6471;50.932;6.934;2023-06-14T12:01:09;3.20;;;2.30;;
12812;SDS011;6471;50.932;6.934;2023-06-14T12:03:35;5.30;;;2.35;;
12812;SDS011;6471;50.932;6.934;2023-06-14T12:06:10;3.25;;;2.15;;
12812;SDS011;6471;50.932;6.934;2023-06-14T12:08:37;4.30;;;2.15;;
12812;SDS011;6471;50.932;6.934;2023-06-14T12:11:06;6.40;;;2.10;;
12812;SDS011;6471;50.932;6.934;2023-06-14T12:13:37;5.63;;;2.10;;
12812;SDS011;6471;50.932;6.934;2023-06-14T12:16:06;2.47;;;2.00;;
12812;SDS011;6471;50.932;6.934;2023-06-14T12:18:35;2.20;;;1.95;;
12812;SDS011;6471;50.932;6.934;2023-06-14T12:21:02;4.22;;;2.17;;
12812;SDS011;6471;50.932;6.934;2023-06-14T12:23:49;2.92;;;2.30;;
12812;SDS011;6471;50.932;6.934;2023-06-14T12:26:16;4.00;;;2.10;;
12812;SDS011;6471;50.932;6.934;2023-06-14T12:28:44;5.23;;;2.30;;
12812;SDS011;6471;50.932;6.934;2023-06-14T12:31:14;2.20;;;1.88;;
12812;SDS011;6471;50.932;6.934;2023-06-14T12:33:40;2.67;;;1.97;;
12812;SDS011;6471;50.932;6.934;2023-06-14T12:36:07;4.45;;;2.08;;
12812;SDS011;6471;50.932;6.934;2023-06-14T12:38:34;4.75;;;2.08;;
12812;SDS011;6471;50.932;6.934;2023-06-14T12:41:00;2.25;;;2.05;;
12812;SDS011;6471;50.932;6.934;2023-06-14T12:43:26;2.45;;;1.65;;
12812;SDS011;6471;50.932;6.934;2023-06-14T12:45:53;2.00;;;1.80;;
12812;SDS011;6471;50.932;6.934;2023-06-14T12:48:19;3.65;;;1.92;;
12812;SDS011;6471;50.932;6.934;2023-06-14T12:50:45;2.20;;;2.00;;
12812;SDS011;6471;50.932;6.934;2023-06-14T12:53:11;4.97;;;1.80;;
12812;SDS011;6471;50.932;6.934;2023-06-14T12:55:37;1.83;;;1.73;;
12812;SDS011;6471;50.932;6.934;2023-06-14T12:58:03;2.08;;;1.88;;
12812;SDS011;6471;50.932;6.934;2023-06-14T13:03:45;2.10;;;1.90;;
12812;SDS011;6471;50.932;6.934;2023-06-14T13:06:34;4.53;;;1.80;;
12812;SDS011;6471;50.932;6.934;2023-06-14T13:09:23;2.58;;;1.73;;
12812;SDS011;6471;50.932;6.934;2023-06-14T13:11:52;2.42;;;2.20;;
12812;SDS011;6471;50.932;6.934;2023-06-14T13:14:18;2.35;;;1.85;;
12812;SDS011;6471;50.932;6.934;2023-06-14T13:19:56;3.83;;;1.98;;
12812;SDS011;6471;50.932;6.934;2023-06-14T13:22:48;3.70;;;2.30;;
12812;SDS011;6471;50.932;6.934;2023-06-14T13:25:26;4.13;;;2.20;;
12812;SDS011;6471;50.932;6.934;2023-06-14T13:28:07;12.05;;;2.60;;
12812;SDS011;6471;50.932;6.934;2023-06-14T13:30:55;5.60;;;1.92;;
12812;SDS011;6471;50.932;6.934;2023-06-14T13:33:41;4.35;;;2.10;;
12812;SDS011;6471;50.932;6.934;2023-06-14T13:36:07;3.08;;;1.60;;
12812;SDS011;6471;50.932;6.934;2023-06-14T13:38:37;2.30;;;2.00;;
12812;SDS011;6471;50.932;6.934;2023-06-14T13:41:54;4.00;;;1.98;;
12812;SDS011;6471;50.932;6.934;2023-06-14T13:44:13;2.65;;;1.73;;
12812;SDS011;6471;50.932;6.934;2023-06-14T13:46:56;2.90;;;1.90;;
12812;SDS011;6471;50.932;6.934;2023-06-14T13:49:22;2.42;;;1.80;;
12812;SDS011;6471;50.932;6.934;2023-06-14T13:51:55;4.50;;;2.25;;
12812;SDS011;6471;50.932;6.934;2023-06-14T13:54:27;2.53;;;2.10;;
12812;SDS011;6471;50.932;6.934;2023-06-14T13:57:45;6.25;;;2.63;;
12812;SDS011;6471;50.932;6.934;2023-06-14T14:00:18;3.45;;;2.17;;
12812;SDS011;6471;50.932;6.934;2023-06-14T14:05:48;2.88;;;2.20;;
12812;SDS011;6471;50.932;6.934;2023-06-14T14:08:21;4.07;;;2.13;;
12812;SDS011;6471;50.932;6.934;2023-06-14T14:13:56;3.20;;;2.30;;
12812;SDS011;6471;50.932;6.934;2023-06-14T14:16:45;3.95;;;3.53;;
12812;SDS011;6471;50.932;6.934;2023-06-14T14:19:30;3.97;;;2.63;;
12812;SDS011;6471;50.932;6.934;2023-06-14T14:24:43;14.15;;;2.75;;
12812;SDS011;6471;50.932;6.934;2023-06-14T14:27:18;8.68;;;2.50;;
12812;SDS011;6471;50.932;6.934;2023-06-14T14:30:06;2.60;;;2.30;;
12812;SDS011;6471;50.932;6.934;2023-06-14T14:32:44;3.45;;;2.25;;
12812;SDS011;6471;50.932;6.934;2023-06-14T14:35:53;4.72;;;2.20;;
12812;SDS011;6471;50.932;6.934;2023-06-14T14:38:24;3.90;;;2.30;;
12812;SDS011;6471;50.932;6.934;2023-06-14T14:40:50;4.18;;;2.50;;
12812;SDS011;6471;50.932;6.934;2023-06-14T14:43:20;4.43;;;2.33;;
12812;SDS011;6471;50.932;6.934;2023-06-14T14:48:58;5.10;;;2.50;;
12812;SDS011;6471;50.932;6.934;2023-06-14T14:54:16;2.63;;;2.13;;
12812;SDS011;6471;50.932;6.934;2023-06-14T14:56:51;2.28;;;1.95;;
12812;SDS011;6471;50.932;6.934;2023-06-14T14:59:17;6.63;;;2.80;;
12812;SDS011;6471;50.932;6.934;2023-06-14T15:01:47;3.08;;;2.35;;
12812;SDS011;6471;50.932;6.934;2023-06-14T15:04:17;3.08;;;2.30;;
12812;SDS011;6471;50.932;6.934;2023-06-14T15:06:55;2.60;;;2.40;;
12812;SDS011;6471;50.932;6.934;2023-06-14T15:50:08;2.53;;;2.15;;
12812;SDS011;6471;50.932;6.934;2023-06-14T15:52:57;2.90;;;2.13;;
12812;SDS011;6471;50.932;6.934;2023-06-14T15:55:44;3.75;;;2.20;;
12812;SDS011;6471;50.932;6.934;2023-06-14T15:58:12;5.18;;;2.85;;
12812;SDS011;6471;50.932;6.934;2023-06-14T16:00:59;4.18;;;2.45;;
12812;SDS011;6471;50.932;6.934;2023-06-14T16:03:25;4.20;;;2.65;;
12812;SDS011;6471;50.932;6.934;2023-06-14T16:05:55;2.30;;;2.10;;
12812;SDS011;6471;50.932;6.934;2023-06-14T16:27:48;5.28;;;2.47;;
12812;SDS011;6471;50.932;6.934;2023-06-14T16:30:15;2.55;;;2.35;;
12812;SDS011;6471;50.932;6.934;2023-06-14T16:32:42;5.13;;;2.65;;
12812;SDS011;6471;50.932;6.934;2023-06-14T16:35:08;3.10;;;2.80;;
12812;SDS011;6471;50.932;6.934;2023-06-14T16:46:45;10.23;;;2.95;;
12812;SDS011;6471;50.932;6.934;2023-06-14T16:49:11;4.82;;;2.80;;
12812;SDS011;6471;50.932;6.934;2023-06-14T16:51:37;4.25;;;2.60;;
12812;SDS011;6471;50.932;6.934;2023-06-14T16:54:03;4.85;;;3.05;;
12812;SDS011;6471;50.932;6.934;2023-06-14T16:56:29;8.02;;;2.50;;
12812;SDS011;6471;50.932;6.934;2023-06-14T16:58:56;8.15;;;2.90;;
12812;SDS011;6471;50.932;6.934;2023-06-14T17:01:23;4.85;;;3.08;;
12812;SDS011;6471;50.932;6.934;2023-06-14T17:03:50;3.65;;;2.78;;
12812;SDS011;6471;50.932;6.934;2023-06-14T17:06:16;4.03;;;2.87;;
12812;SDS011;6471;50.932;6.934;2023-06-14T17:08:43;4.72;;;2.67;;
12812;SDS011;6471;50.932;6.934;2023-06-14T17:11:09;2.38;;;2.17;;
12812;SDS011;6471;50.932;6.934;2023-06-14T17:13:35;3.20;;;2.78;;
12812;SDS011;6471;50.932;6.934;2023-06-14T17:16:02;4.80;;;3.10;;
12812;SDS011;6471;50.932;6.934;2023-06-14T17:18:30;2.63;;;2.40;;
12812;SDS011;6471;50.932;6.934;2023-06-14T17:20:56;3.95;;;2.20;;
12812;SDS011;6471;50.932;6.934;2023-06-14T17:23:22;3.17;;;2.88;;
12812;SDS011;6471;50.932;6.934;2023-06-14T17:25:48;4.50;;;2.55;;
12812;SDS011;6471;50.932;6.934;2023-06-14T17:28:14;3.10;;;2.80;;
12812;SDS011;6471;50.932;6.934;2023-06-14T17:30:42;4.07;;;3.63;;
12812;SDS011;6471;50.932;6.934;2023-06-14T17:33:08;3.40;;;3.10;;
12812;SDS011;6471;50.932;6.934;2023-06-14T17:35:35;6.28;;;3.05;;
12812;SDS011;6471;50.932;6.934;2023-06-14T17:38:02;5.25;;;3.20;;